Time;durP1;ratioP1;P1;durP2;ratioP2;P2;SDS_P1;SDS_P2;PMS_P1;PMS_P2;Temp;Humidity;BMP_temperature;BMP_pressure;BME280_temperature;BME280_humidity;BME280_pressure;Samples;Min_cycle;Max_cycle;Signal;HPM_P1;HPM_P2
2022/09/05 00:00:06;;;;;;;2.65;1.40;;;23.20;56.90;;;;;;5068332;28;20036;-70
2022/09/05 00:02:43;;;;;;;2.47;1.17;;;23.20;56.90;;;;;;5071708;28;20391;-72
2022/09/05 00:05:50;;;;;;;2.97;1.30;;;23.10;57.00;;;;;;5068669;28;20069;-71
2022/09/05 00:08:22;;;;;;;3.33;1.40;;;23.10;56.90;;;;;;5069435;28;20040;-71
2022/09/05 00:10:54;;;;;;;2.70;1.40;;;23.20;57.00;;;;;;5059896;28;20024;-71
2022/09/05 00:13:34;;;;;;;2.40;1.33;;;23.10;57.10;;;;;;5068937;28;20551;-71
2022/09/05 00:16:25;;;;;;;3.42;1.40;;;23.10;57.20;;;;;;5060829;28;20055;-71
2022/09/05 00:19:16;;;;;;;3.05;1.30;;;23.20;57.30;;;;;;5070543;28;20029;-71
2022/09/05 00:22:00;;;;;;;2.03;1.27;;;23.10;57.40;;;;;;5071669;28;20048;-71
2022/09/05 00:24:44;;;;;;;3.35;1.25;;;23.20;57.50;;;;;;5069948;28;20025;-72
2022/09/05 00:27:35;;;;;;;5.57;1.20;;;23.10;57.60;;;;;;5070479;28;20027;-72
2022/09/05 00:30:05;;;;;;;3.03;1.20;;;23.10;57.80;;;;;;5070042;28;20034;-70
2022/09/05 00:32:49;;;;;;;;;;;23.10;57.80;;;;;;5068618;28;20049;-71
2022/09/05 00:35:41;;;;;;;3.10;1.30;;;23.10;57.60;;;;;;5070931;28;19942;-70
2022/09/05 00:38:19;;;;;;;3.35;1.30;;;23.10;57.80;;;;;;5050047;28;20126;-72
2022/09/05 00:40:51;;;;;;;3.08;1.70;;;23.10;57.90;;;;;;5067275;28;20120;-70
2022/09/05 00:43:24;;;;;;;3.40;1.33;;;23.10;58.00;;;;;;5070269;28;20024;-70
2022/09/05 00:45:57;;;;;;;3.05;1.60;;;23.10;58.00;;;;;;5069364;28;20028;-69
2022/09/05 00:48:57;;;;;;;4.15;1.98;;;23.00;58.20;;;;;;5050406;28;20082;-72
2022/09/05 00:51:35;;;;;;;2.28;1.38;;;23.00;58.40;;;;;;5068224;28;20029;-71
2022/09/05 00:54:11;;;;;;;2.40;1.38;;;23.00;58.60;;;;;;5069823;28;20096;-71
2022/09/05 00:57:16;;;;;;;3.65;1.90;;;23.00;58.50;;;;;;5070313;28;20043;-71
2022/09/05 01:00:10;;;;;;;3.13;1.42;;;23.00;58.80;;;;;;5070018;28;20511;-71
2022/09/05 01:02:55;;;;;;;5.93;2.08;;;23.00;58.80;;;;;;5059225;28;20025;-71
2022/09/05 01:05:44;;;;;;;5.43;2.08;;;22.90;58.90;;;;;;5069818;28;20487;-71
2022/09/05 01:08:44;;;;;;;3.88;1.80;;;22.80;59.10;;;;;;5070695;28;20035;-71
2022/09/05 01:11:17;;;;;;;4.90;1.80;;;22.80;59.20;;;;;;5069736;28;20081;-70
2022/09/05 01:13:45;;;;;;;3.78;2.10;;;22.80;59.30;;;;;;5070813;28;20522;-71
2022/09/05 01:16:55;;;;;;;4.75;2.25;;;22.80;59.50;;;;;;5069743;28;20043;-70
2022/09/05 01:19:29;;;;;;;4.35;2.25;;;22.70;59.70;;;;;;5048862;28;20025;-70
2022/09/05 01:22:27;;;;;;;2.85;1.60;;;22.70;59.60;;;;;;5062742;28;20148;-70
2022/09/05 01:25:26;;;;;;;5.80;2.10;;;22.60;59.60;;;;;;5047694;28;20052;-71
2022/09/05 01:28:25;;;;;;;5.00;2.53;;;22.60;60.00;;;;;;5069153;28;20116;-71
2022/09/05 01:31:21;;;;;;;3.30;1.83;;;22.60;60.10;;;;;;5066958;28;20081;-71
2022/09/05 01:34:02;;;;;;;5.55;2.70;;;22.60;60.30;;;;;;5066093;28;20032;-70
2022/09/05 01:36:46;;;;;;;3.33;1.85;;;22.50;60.50;;;;;;5059840;28;20055;-71
2022/09/05 01:39:43;;;;;;;5.20;2.75;;;22.50;60.60;;;;;;5069719;28;20029;-71
2022/09/05 01:42:37;;;;;;;4.57;2.58;;;22.50;60.80;;;;;;5067339;28;20063;-71
2022/09/05 01:45:43;;;;;;;4.10;2.22;;;22.50;60.90;;;;;;5067632;28;20020;-71
2022/09/05 01:48:36;;;;;;;6.00;2.28;;;22.40;61.80;;;;;;5068945;28;20028;-72
2022/09/05 01:51:11;;;;;;;3.22;1.95;;;22.40;61.30;;;;;;5070050;28;20548;-71
2022/09/05 01:53:52;;;;;;;4.47;2.55;;;22.40;61.30;;;;;;5067749;28;20021;-71
2022/09/05 01:56:32;;;;;;;5.40;2.75;;;22.40;61.30;;;;;;5069947;28;20024;-70
2022/09/05 01:59:15;;;;;;;5.53;3.47;;;22.30;61.40;;;;;;5065616;28;20024;-71
2022/09/05 02:02:10;;;;;;;4.60;2.67;;;22.30;61.70;;;;;;5069510;28;20483;-70
2022/09/05 02:04:53;;;;;;;5.10;3.33;;;22.30;61.90;;;;;;5062339;28;20059;-70
2022/09/05 02:07:42;;;;;;;6.43;3.55;;;22.30;62.10;;;;;;5072861;28;20491;-70
2022/09/05 02:10:29;;;;;;;5.80;3.88;;;22.20;62.30;;;;;;5069478;28;20036;-70
2022/09/05 02:13:19;;;;;;;5.40;3.22;;;22.20;62.30;;;;;;5072597;28;20738;-71
2022/09/05 02:16:04;;;;;;;;;;;22.20;62.40;;;;;;5073245;28;20025;-70
2022/09/05 02:18:44;;;;;;;6.38;2.90;;;22.30;62.30;;;;;;5070962;28;19905;-71
2022/09/05 02:21:32;;;;;;;6.60;4.10;;;22.20;62.50;;;;;;5072984;28;20109;-71
2022/09/05 02:24:08;;;;;;;6.50;3.88;;;22.20;62.60;;;;;;5072776;28;20025;-70
2022/09/05 02:27:11;;;;;;;4.60;2.70;;;22.10;62.80;;;;;;5073539;28;20035;-70
2022/09/05 02:29:58;;;;;;;6.10;3.30;;;22.10;62.80;;;;;;5072629;28;20021;-70
2022/09/05 02:32:35;;;;;;;4.75;2.95;;;22.10;63.00;;;;;;5070104;28;20017;-70
2022/09/05 02:35:17;;;;;;;6.93;2.88;;;22.10;62.90;;;;;;5072208;28;20009;-70
2022/09/05 02:37:51;;;;;;;5.75;3.53;;;22.10;63.00;;;;;;5073034;28;20107;-70
2022/09/05 02:40:40;;;;;;;7.25;3.38;;;22.00;63.10;;;;;;5072708;28;20119;-70
2022/09/05 02:43:31;;;;;;;5.78;3.35;;;22.00;63.30;;;;;;5072945;28;20036;-71
2022/09/05 02:46:14;;;;;;;4.85;2.53;;;22.00;63.40;;;;;;5061754;28;20423;-71
2022/09/05 02:48:49;;;;;;;6.38;3.67;;;22.00;63.30;;;;;;5072910;28;20020;-71
2022/09/05 02:51:27;;;;;;;5.75;4.10;;;22.00;63.40;;;;;;5062898;28;20052;-71
2022/09/05 02:54:02;;;;;;;6.45;4.00;;;21.90;63.50;;;;;;5072659;28;20020;-72
2022/09/05 02:57:05;;;;;;;6.13;3.95;;;21.90;63.70;;;;;;5072844;28;20530;-71
2022/09/05 02:59:38;;;;;;;5.93;3.97;;;21.80;63.80;;;;;;5071263;28;20031;-71
2022/09/05 03:02:32;;;;;;;6.45;3.90;;;21.90;63.90;;;;;;5071924;28;20039;-72
2022/09/05 03:05:17;;;;;;;7.25;4.00;;;21.80;64.60;;;;;;5063482;28;20035;-72
2022/09/05 03:08:11;;;;;;;6.25;4.03;;;21.80;64.10;;;;;;5073638;28;20023;-72
2022/09/05 03:10:55;;;;;;;5.63;3.63;;;21.80;64.30;;;;;;5071597;28;20494;-71
2022/09/05 03:13:36;;;;;;;10.45;4.70;;;21.70;64.10;;;;;;5052142;28;20029;-72
2022/09/05 03:16:19;;;;;;;6.47;3.72;;;21.70;64.40;;;;;;5069334;28;20028;-72
2022/09/05 03:19:16;;;;;;;8.75;5.32;;;21.70;64.60;;;;;;5072059;28;20033;-70
2022/09/05 03:22:03;;;;;;;7.05;4.45;;;21.70;64.90;;;;;;5060481;28;20036;-72
2022/09/05 03:24:46;;;;;;;8.77;4.97;;;21.70;64.70;;;;;;5072383;28;20031;-72
2022/09/05 03:27:43;;;;;;;8.00;4.65;;;21.70;64.80;;;;;;5072091;28;20025;-72
2022/09/05 03:30:20;;;;;;;8.05;4.60;;;21.60;64.70;;;;;;5071624;28;20021;-71
2022/09/05 03:33:02;;;;;;;6.15;3.70;;;21.60;64.80;;;;;;5067887;28;20021;-71
2022/09/05 03:35:45;;;;;;;6.22;4.00;;;21.50;64.90;;;;;;5060057;28;20129;-71
2022/09/05 03:38:32;;;;;;;7.82;5.32;;;21.50;65.20;;;;;;5070527;28;20033;-71
2022/09/05 03:40:57;;;;;;;10.88;5.57;;;21.50;65.30;;;;;;5071080;28;20040;-71
2022/09/05 03:44:11;;;;;;;8.50;5.53;;;21.50;65.40;;;;;;5071703;28;20052;-71
2022/09/05 03:47:01;;;;;;;6.40;4.07;;;21.50;65.60;;;;;;5068601;28;20028;-71
2022/09/05 03:49:35;;;;;;;9.23;4.80;;;21.50;65.50;;;;;;5050447;28;20021;-71
2022/09/05 03:52:48;;;;;;;6.95;4.45;;;21.50;65.40;;;;;;5066678;28;20079;-71
2022/09/05 03:55:23;;;;;;;6.50;4.97;;;21.50;65.60;;;;;;5055896;28;20028;-71
2022/09/05 03:58:20;;;;;;;6.75;4.70;;;21.60;65.70;;;;;;5070283;28;20106;-71
2022/09/05 04:01:02;;;;;;;6.30;4.13;;;21.50;65.60;;;;;;5068928;28;20032;-71
2022/09/05 04:03:47;;;;;;;7.30;4.47;;;21.50;65.50;;;;;;5068660;28;20024;-71
2022/09/05 04:06:32;;;;;;;6.70;4.13;;;21.40;65.70;;;;;;5068463;28;20017;-70
2022/09/05 04:09:00;;;;;;;6.65;4.25;;;21.40;65.70;;;;;;5068421;28;20036;-71
2022/09/05 04:11:41;;;;;;;7.38;4.03;;;21.30;65.50;;;;;;5067157;28;20486;-72
2022/09/05 04:14:19;;;;;;;7.28;4.05;;;21.30;65.70;;;;;;5059529;28;20031;-71
2022/09/05 04:16:57;;;;;;;7.75;4.78;;;21.20;65.60;;;;;;5068904;28;20016;-70
2022/09/05 04:19:51;;;;;;;6.03;3.88;;;21.20;65.90;;;;;;5059439;28;20025;-71
2022/09/05 04:22:28;;;;;;;7.35;5.43;;;21.20;66.00;;;;;;5058369;28;20021;-70
2022/09/05 04:25:13;;;;;;;10.55;5.15;;;21.20;66.20;;;;;;5066121;28;20017;-70
2022/09/05 04:28:13;;;;;;;9.27;6.40;;;21.20;66.50;;;;;;5060371;28;20024;-71
2022/09/05 04:30:44;;;;;;;9.68;5.78;;;21.20;66.60;;;;;;5067681;28;20037;-71
2022/09/05 04:33:24;;;;;;;9.50;7.07;;;21.30;66.80;;;;;;5059968;28;20035;-71
2022/09/05 04:36:19;;;;;;;9.07;5.55;;;21.30;66.90;;;;;;5061952;28;20029;-69
2022/09/05 04:39:03;;;;;;;8.93;6.50;;;21.30;67.00;;;;;;5067296;28;20573;-70
2022/09/05 04:41:32;;;;;;;10.93;7.43;;;21.30;67.00;;;;;;5051422;28;20037;-70
2022/09/05 04:44:08;;;;;;;9.25;6.70;;;21.30;67.10;;;;;;5066850;28;20141;-70
2022/09/05 04:46:45;;;;;;;7.93;5.50;;;21.20;67.20;;;;;;5070664;28;20021;-70
2022/09/05 04:49:17;;;;;;;8.98;5.85;;;21.20;67.10;;;;;;5068999;28;20028;-71
2022/09/05 04:52:20;;;;;;;11.60;7.10;;;21.20;67.30;;;;;;5070696;28;20056;-71
2022/09/05 04:55:07;;;;;;;8.13;3.45;;;21.10;67.50;;;;;;5058861;28;20458;-69
2022/09/05 04:57:50;;;;;;;5.00;3.22;;;21.30;67.30;;;;;;5057345;28;20056;-70
2022/09/05 05:00:34;;;;;;;6.97;3.85;;;21.70;66.40;;;;;;5061715;28;20036;-70
2022/09/05 05:03:11;;;;;;;6.20;3.15;;;22.10;66.10;;;;;;5071699;28;20111;-69
2022/09/05 05:05:46;;;;;;;6.18;3.72;;;22.50;64.50;;;;;;5061361;28;20016;-70
2022/09/05 05:08:14;;;;;;;5.78;3.35;;;22.70;63.80;;;;;;5061132;28;20044;-69
2022/09/05 05:11:05;;;;;;;5.13;3.05;;;22.90;63.30;;;;;;5059483;28;20039;-70
2022/09/05 05:13:47;;;;;;;6.03;3.78;;;23.10;62.90;;;;;;5059470;28;20036;-70
2022/09/05 05:16:26;;;;;;;7.00;3.67;;;23.30;62.70;;;;;;5062338;28;20496;-70
2022/09/05 05:19:04;;;;;;;5.20;3.47;;;23.40;62.30;;;;;;5068901;28;20069;-70
2022/09/05 05:21:31;;;;;;;6.38;3.75;;;23.40;62.00;;;;;;5069296;28;20055;-70
2022/09/05 05:23:59;;;;;;;7.18;3.83;;;23.50;61.90;;;;;;5068808;28;20029;-70
2022/09/05 05:26:32;;;;;;;8.35;4.55;;;23.60;61.70;;;;;;5068647;28;20032;-70
2022/09/05 05:29:18;;;;;;;7.28;3.75;;;23.70;61.60;;;;;;5063469;28;20071;-71
2022/09/05 05:32:00;;;;;;;6.60;3.42;;;23.70;61.50;;;;;;5060678;28;20032;-70
2022/09/05 05:34:31;;;;;;;6.00;3.63;;;23.70;61.40;;;;;;5061608;28;20040;-71
2022/09/05 05:37:21;;;;;;;6.70;3.85;;;23.80;61.20;;;;;;5061563;28;20090;-69
2022/09/05 05:40:09;;;;;;;6.63;4.28;;;23.80;61.20;;;;;;5063418;28;20029;-70
2022/09/05 05:42:40;;;;;;;7.35;3.47;;;23.80;61.00;;;;;;5072735;28;20079;-70
2022/09/05 05:45:19;;;;;;;9.27;4.72;;;23.90;60.80;;;;;;5073014;28;20025;-69
2022/09/05 05:47:49;;;;;;;7.30;4.18;;;23.90;60.80;;;;;;5072219;28;20486;-71
2022/09/05 05:50:29;;;;;;;7.90;4.70;;;23.90;60.60;;;;;;5063492;28;20013;-70
2022/09/05 05:53:15;;;;;;;6.38;4.15;;;24.00;60.60;;;;;;5061988;28;20036;-69
2022/09/05 05:56:12;;;;;;;6.72;4.85;;;24.00;60.50;;;;;;5062329;28;20041;-70
2022/09/05 05:59:05;;;;;;;7.32;4.78;;;24.10;60.50;;;;;;5060958;28;20029;-71
2022/09/05 06:01:53;;;;;;;9.27;5.32;;;24.00;60.40;;;;;;5063374;28;20048;-71
2022/09/05 06:04:27;;;;;;;11.32;5.28;;;24.10;60.40;;;;;;5064241;28;20036;-71
2022/09/05 06:07:14;;;;;;;7.88;5.00;;;24.10;60.30;;;;;;5067449;28;20097;-71
2022/09/05 06:10:01;;;;;;;9.23;5.88;;;24.10;60.20;;;;;;5069640;28;20383;-70
2022/09/05 06:13:06;;;;;;;6.97;4.60;;;24.10;60.10;;;;;;5068022;28;20099;-69
2022/09/05 06:15:46;;;;;;;8.02;5.78;;;24.20;60.20;;;;;;5071499;28;20051;-70
2022/09/05 06:18:33;;;;;;;8.13;5.50;;;24.30;60.10;;;;;;5050806;28;20645;-71
2022/09/05 06:21:06;;;;;;;7.63;4.88;;;24.30;60.00;;;;;;5057063;28;20125;-71
2022/09/05 06:24:11;;;;;;;7.53;5.22;;;24.40;59.90;;;;;;5072569;28;20155;-69
2022/09/05 06:26:57;;;;;;;9.38;4.93;;;24.50;59.60;;;;;;5064877;28;20024;-70
2022/09/05 06:29:37;;;;;;;9.30;6.22;;;24.50;59.60;;;;;;5054087;28;20029;-69
2022/09/05 06:32:25;;;;;;;6.95;5.38;;;24.60;59.50;;;;;;5065433;28;20032;-70
2022/09/05 06:35:15;;;;;;;10.25;5.68;;;24.60;59.50;;;;;;5057502;28;20097;-70
2022/09/05 06:37:51;;;;;;;7.63;5.50;;;24.70;59.60;;;;;;5073044;28;20021;-70
2022/09/05 06:40:24;;;;;;;8.40;5.68;;;24.70;59.20;;;;;;5073590;28;20028;-70
2022/09/05 06:43:13;;;;;;;10.13;5.22;;;24.80;59.20;;;;;;5072896;28;20025;-70
2022/09/05 06:46:15;;;;;;;7.53;5.00;;;24.90;59.00;;;;;;5072543;28;20113;-69
2022/09/05 06:49:05;;;;;;;10.15;5.88;;;25.00;58.90;;;;;;5071323;28;20107;-70
2022/09/05 06:52:08;;;;;;;7.90;5.07;;;25.10;58.80;;;;;;5072031;28;20474;-69
2022/09/05 06:54:44;;;;;;;7.97;4.97;;;25.10;58.50;;;;;;5062580;28;20032;-71
2022/09/05 06:57:44;;;;;;;6.75;4.70;;;25.10;58.00;;;;;;5072297;28;20021;-70
2022/09/05 07:00:23;;;;;;;9.87;5.43;;;25.10;57.70;;;;;;5057789;28;20061;-72
2022/09/05 07:03:13;;;;;;;9.18;6.03;;;25.10;54.10;;;;;;5057621;28;20837;-70
2022/09/05 07:05:49;;;;;;;11.23;7.90;;;24.80;55.50;;;;;;5059370;28;20033;-70
2022/09/05 07:08:20;;;;;;;9.52;4.43;;;24.60;57.10;;;;;;5056411;28;20029;-71
2022/09/05 07:10:58;;;;;;;9.25;4.07;;;24.50;54.60;;;;;;5059638;28;20028;-70
2022/09/05 07:13:54;;;;;;;13.02;4.13;;;24.40;54.70;;;;;;5056989;28;20035;-70
2022/09/05 07:16:41;;;;;;;13.55;9.38;;;24.40;53.70;;;;;;5058426;28;20552;-73
2022/09/05 07:19:28;;;;;;;11.93;5.15;;;24.30;57.90;;;;;;5059390;28;20414;-71
2022/09/05 07:22:18;;;;;;;12.40;4.53;;;24.30;55.30;;;;;;5058762;28;20044;-72
2022/09/05 07:24:49;;;;;;;12.32;4.97;;;24.40;54.50;;;;;;5058062;28;20104;-71
2022/09/05 07:27:52;;;;;;;8.13;4.88;;;24.40;55.30;;;;;;5057035;28;20013;-72
2022/09/05 07:30:19;;;;;;;12.77;9.48;;;24.40;56.30;;;;;;5056789;28;20116;-73
2022/09/05 07:32:50;;;;;;;11.73;6.03;;;24.50;58.80;;;;;;5058914;28;20111;-70
2022/09/05 07:35:30;;;;;;;17.90;12.50;;;24.60;56.70;;;;;;5055836;28;20029;-72
2022/09/05 07:38:16;;;;;;;13.32;4.00;;;24.70;59.20;;;;;;5057907;28;20028;-73
2022/09/05 07:40:58;;;;;;;12.52;8.93;;;24.80;55.00;;;;;;5059989;28;20047;-72
2022/09/05 07:43:32;;;;;;;12.65;6.82;;;24.90;56.10;;;;;;5057216;28;20024;-72
2022/09/05 07:46:18;;;;;;;9.20;5.63;;;25.00;55.50;;;;;;5059116;28;20032;-72
2022/09/05 07:48:56;;;;;;;7.30;4.85;;;25.10;55.40;;;;;;5063313;28;20063;-71
2022/09/05 07:51:27;;;;;;;12.93;11.27;;;25.20;55.10;;;;;;5056984;28;20157;-71
2022/09/05 07:53:57;;;;;;;12.90;8.18;;;25.40;57.40;;;;;;5059713;28;20065;-71
2022/09/05 07:56:42;;;;;;;;;;;25.40;58.20;;;;;;5057303;28;20459;-72
2022/09/05 07:59:12;;;;;;;15.57;7.88;;;25.50;55.80;;;;;;5055443;28;19940;-71
2022/09/05 08:01:43;;;;;;;11.63;8.68;;;25.70;56.60;;;;;;5059107;28;20058;-71
2022/09/05 08:04:30;;;;;;;10.32;7.10;;;25.90;57.20;;;;;;5057724;28;20025;-71
2022/09/05 08:06:59;;;;;;;14.00;8.82;;;26.00;56.80;;;;;;5056061;28;20044;-72
2022/09/05 08:09:33;;;;;;;9.48;6.80;;;26.20;56.10;;;;;;5058213;28;20020;-71
2022/09/05 08:12:14;;;;;;;10.57;8.02;;;26.20;55.80;;;;;;5063545;28;20035;-71
2022/09/05 08:14:42;;;;;;;8.10;3.80;;;26.30;56.10;;;;;;5058909;28;20462;-72
2022/09/05 08:17:14;;;;;;;10.80;5.70;;;26.40;54.70;;;;;;5060503;28;20044;-72
2022/09/05 08:19:58;;;;;;;12.63;7.43;;;26.60;54.50;;;;;;5061663;28;20044;-72
2022/09/05 08:22:29;;;;;;;7.63;4.32;;;26.70;54.70;;;;;;5060159;28;20033;-72
2022/09/05 08:24:59;;;;;;;7.70;3.90;;;26.70;54.50;;;;;;5057260;28;20031;-71
2022/09/05 08:27:53;;;;;;;10.02;6.65;;;26.80;53.80;;;;;;5061701;28;20103;-71
2022/09/05 08:30:19;;;;;;;11.65;7.38;;;26.90;53.50;;;;;;5055376;28;20044;-72
2022/09/05 08:33:04;;;;;;;11.43;8.07;;;27.00;53.90;;;;;;5059852;28;20021;-72
2022/09/05 08:35:41;;;;;;;10.38;7.15;;;27.10;53.80;;;;;;5055617;28;20025;-71
2022/09/05 08:38:07;;;;;;;13.30;7.45;;;27.20;53.80;;;;;;5058305;28;20029;-73
2022/09/05 08:40:44;;;;;;;9.55;5.13;;;27.40;54.10;;;;;;5059365;28;20479;-72
2022/09/05 08:43:27;;;;;;;9.27;3.20;;;27.70;53.20;;;;;;5062313;28;20086;-72
2022/09/05 08:46:05;;;;;;;11.95;5.00;;;27.80;52.90;;;;;;5058439;28;20037;-72
2022/09/05 08:48:58;;;;;;;10.73;5.72;;;28.00;52.60;;;;;;5062928;28;20031;-71
2022/09/05 08:51:52;;;;;;;8.57;5.13;;;28.10;51.20;;;;;;5061282;28;20514;-71
2022/09/05 08:54:53;;;;;;;9.98;6.28;;;28.20;51.00;;;;;;5056844;28;20021;-72
2022/09/05 08:57:44;;;;;;;10.35;4.97;;;28.30;50.80;;;;;;5060281;28;20047;-72
2022/09/05 09:00:14;;;;;;;10.50;4.88;;;28.40;51.10;;;;;;5054065;28;20936;-72
2022/09/05 09:03:19;;;;;;;6.03;2.40;;;28.50;51.50;;;;;;5062866;28;20028;-73
2022/09/05 09:05:53;;;;;;;10.52;3.55;;;28.70;52.10;;;;;;5056330;28;20025;-72
2022/09/05 09:08:23;;;;;;;8.50;2.95;;;28.90;52.30;;;;;;5059045;28;20040;-72
2022/09/05 09:11:10;;;;;;;6.13;3.15;;;29.10;51.40;;;;;;5062274;28;20151;-73
2022/09/05 09:14:13;;;;;;;6.50;2.78;;;29.30;49.00;;;;;;5060983;28;20025;-72
2022/09/05 09:16:59;;;;;;;8.52;3.05;;;29.40;50.30;;;;;;5062049;28;20116;-71
2022/09/05 09:19:43;;;;;;;5.78;2.40;;;29.50;46.40;;;;;;5064606;28;20051;-71
2022/09/05 09:22:25;;;;;;;8.35;1.85;;;29.60;48.50;;;;;;5065022;28;20064;-71
2022/09/05 09:25:15;;;;;;;6.22;2.38;;;29.70;45.90;;;;;;5064692;28;20041;-72
2022/09/05 09:27:59;;;;;;;5.50;2.30;;;29.70;49.50;;;;;;5080331;28;20126;-72
2022/09/05 09:30:29;;;;;;;4.32;1.80;;;29.70;47.90;;;;;;5076816;28;20047;-70
2022/09/05 09:33:01;;;;;;;7.78;1.80;;;30.00;46.70;;;;;;5068408;28;20032;-71
2022/09/05 09:35:56;;;;;;;6.70;2.78;;;30.20;49.40;;;;;;5071755;28;20021;-72
2022/09/05 09:38:31;;;;;;;4.63;2.15;;;30.40;43.80;;;;;;5065777;28;20052;-72
2022/09/05 09:41:29;;;;;;;3.83;1.85;;;30.60;43.50;;;;;;5076088;28;20052;-72
2022/09/05 09:44:14;;;;;;;4.90;2.15;;;30.70;45.20;;;;;;5069014;28;20024;-71
2022/09/05 09:46:42;;;;;;;4.30;1.90;;;30.80;43.00;;;;;;5063898;28;20021;-71
2022/09/05 09:49:39;;;;;;;4.20;1.80;;;30.90;45.50;;;;;;5065679;28;20090;-70
2022/09/05 09:52:08;;;;;;;4.15;1.77;;;31.00;42.40;;;;;;5057833;28;20056;-70
2022/09/05 09:55:24;;;;;;;5.38;1.73;;;31.10;44.70;;;;;;5060734;28;20033;-74
2022/09/05 09:58:22;;;;;;;6.80;2.30;;;31.10;45.80;;;;;;5059977;28;20056;-72
2022/09/05 10:01:06;;;;;;;5.07;1.52;;;31.30;41.20;;;;;;5056926;28;20059;-71
2022/09/05 10:03:55;;;;;;;5.65;1.60;;;31.40;41.70;;;;;;5060590;28;20056;-71
2022/09/05 10:06:26;;;;;;;3.93;1.30;;;31.40;44.30;;;;;;5058621;28;20498;-71
2022/09/05 10:09:18;;;;;;;4.90;1.48;;;31.50;44.60;;;;;;5057347;28;20040;-70
2022/09/05 10:12:03;;;;;;;5.72;1.92;;;31.50;43.80;;;;;;5059515;28;20032;-72
2022/09/05 10:14:53;;;;;;;3.03;1.20;;;31.60;46.10;;;;;;5055008;28;20021;-71
2022/09/05 10:17:47;;;;;;;3.13;1.35;;;31.80;39.80;;;;;;5060909;28;20119;-72
2022/09/05 10:20:54;;;;;;;3.85;1.42;;;32.00;43.80;;;;;;5051937;28;20041;-71
2022/09/05 10:23:38;;;;;;;3.05;1.48;;;32.10;37.70;;;;;;5054749;28;20032;-71
2022/09/05 10:26:56;;;;;;;4.40;1.42;;;32.10;38.70;;;;;;5057829;28;20028;-71
2022/09/05 10:29:37;;;;;;;4.00;1.33;;;32.20;38.30;;;;;;5061754;28;20078;-71
2022/09/05 10:32:19;;;;;;;2.90;1.40;;;32.40;45.50;;;;;;5058759;28;20025;-72
2022/09/05 10:34:55;;;;;;;6.10;1.98;;;32.30;39.70;;;;;;5062969;28;20090;-72
2022/09/05 10:37:26;;;;;;;2.38;1.27;;;32.40;47.00;;;;;;5060202;28;20390;-72
2022/09/05 10:39:58;;;;;;;4.30;1.63;;;32.60;45.70;;;;;;5059331;28;20021;-72
2022/09/05 10:42:30;;;;;;;3.97;1.10;;;32.70;48.20;;;;;;5058024;28;20521;-73
2022/09/05 10:44:56;;;;;;;3.50;1.20;;;32.90;42.60;;;;;;5056017;28;20025;-73
2022/09/05 10:47:31;;;;;;;3.13;1.17;;;33.10;40.40;;;;;;5062350;28;20360;-72
2022/09/05 10:50:27;;;;;;;4.35;1.25;;;33.20;42.40;;;;;;5062901;28;20021;-73
2022/09/05 10:53:19;;;;;;;3.60;1.58;;;33.20;39.80;;;;;;5057934;28;20050;-71
2022/09/05 10:56:02;;;;;;;4.43;1.60;;;33.20;44.50;;;;;;5059753;28;20021;-72
2022/09/05 10:58:57;;;;;;;4.63;1.10;;;33.20;44.20;;;;;;5058413;28;20025;-73
2022/09/05 11:01:45;;;;;;;4.70;1.38;;;33.10;35.70;;;;;;5061258;28;20033;-72
2022/09/05 11:04:29;;;;;;;4.07;0.93;;;33.00;43.70;;;;;;5059943;28;20059;-72
2022/09/05 11:07:02;;;;;;;4.20;1.50;;;33.30;36.60;;;;;;5057306;28;20479;-73
2022/09/05 11:10:01;;;;;;;4.63;1.63;;;33.50;42.00;;;;;;5058811;28;20020;-74
2022/09/05 11:12:47;;;;;;;9.30;2.17;;;33.70;42.80;;;;;;5059177;28;20116;-73
2022/09/05 11:15:39;;;;;;;4.00;1.65;;;33.90;46.30;;;;;;5058179;28;20024;-72
2022/09/05 11:18:14;;;;;;;6.78;2.15;;;34.20;37.30;;;;;;5058543;28;20033;-72
2022/09/05 11:20:48;;;;;;;10.02;2.30;;;34.00;43.30;;;;;;5057845;28;20056;-71
2022/09/05 11:23:20;;;;;;;4.57;1.80;;;34.00;42.00;;;;;;5058584;28;20036;-72
2022/09/05 11:25:50;;;;;;;8.32;2.45;;;34.00;41.90;;;;;;5058222;28;20394;-73
2022/09/05 11:28:25;;;;;;;7.93;2.90;;;34.00;48.40;;;;;;5060287;28;20020;-72
2022/09/05 11:30:54;;;;;;;8.57;2.47;;;34.00;48.20;;;;;;5056792;28;20125;-72
2022/09/05 11:33:41;;;;;;;4.57;1.17;;;34.30;46.00;;;;;;5056287;28;20032;-72
2022/09/05 11:36:13;;;;;;;4.10;1.08;;;34.40;33.90;;;;;;5056106;28;20044;-72
2022/09/05 11:38:59;;;;;;;2.90;1.20;;;34.60;33.90;;;;;;5056811;28;20024;-72
2022/09/05 11:41:37;;;;;;;4.38;1.10;;;34.80;36.90;;;;;;5054583;28;20090;-72
2022/09/05 11:44:23;;;;;;;3.35;1.75;;;35.00;39.40;;;;;;5057698;28;20029;-73
2022/09/05 11:46:55;;;;;;;5.13;1.73;;;35.20;42.20;;;;;;5059735;28;20044;-73
2022/09/05 11:49:33;;;;;;;5.22;1.85;;;35.30;41.50;;;;;;5056485;28;20521;-73
2022/09/05 11:52:20;;;;;;;6.53;1.73;;;35.30;40.60;;;;;;5056275;28;20025;-73
2022/09/05 11:55:24;;;;;;;2.15;1.23;;;35.10;39.20;;;;;;5058876;28;22212;-73
2022/09/05 11:58:23;;;;;;;6.55;2.53;;;34.90;43.60;;;;;;5056339;28;20099;-74
2022/09/05 12:01:27;;;;;;;3.22;0.90;;;35.00;44.30;;;;;;5058160;28;20101;-72
2022/09/05 12:04:08;;;;;;;5.38;2.30;;;35.10;38.50;;;;;;5066020;28;20055;-73
2022/09/05 12:06:55;;;;;;;6.70;2.72;;;35.10;45.50;;;;;;5059314;28;20028;-72
2022/09/05 12:09:30;;;;;;;4.40;1.60;;;35.20;47.30;;;;;;5058904;28;20029;-73
2022/09/05 12:12:09;;;;;;;4.50;1.80;;;35.30;39.40;;;;;;5057362;28;20112;-72
2022/09/05 12:14:54;;;;;;;4.20;1.23;;;35.30;38.40;;;;;;5052688;28;20021;-72
2022/09/05 12:17:33;;;;;;;5.35;2.17;;;35.20;35.20;;;;;;5058631;28;20021;-72
2022/09/05 12:20:05;;;;;;;6.30;2.00;;;35.40;47.20;;;;;;5058255;28;20091;-73
2022/09/05 12:23:18;;;;;;;4.30;1.60;;;35.40;47.30;;;;;;5055133;28;20747;-73
2022/09/05 12:26:15;;;;;;;7.40;2.47;;;35.50;38.60;;;;;;5055969;28;20074;-73
2022/09/05 12:28:54;;;;;;;5.25;1.88;;;35.70;47.30;;;;;;5056146;28;20071;-72
2022/09/05 12:31:39;;;;;;;2.97;1.20;;;35.80;44.80;;;;;;5056658;28;20419;-73
2022/09/05 12:34:11;;;;;;;4.65;1.17;;;36.00;35.70;;;;;;5059960;28;20024;-73
2022/09/05 12:36:49;;;;;;;4.40;1.25;;;36.00;34.20;;;;;;5060494;28;20584;-73
2022/09/05 12:39:27;;;;;;;6.28;1.70;;;36.10;35.70;;;;;;5059751;28;20017;-72
2022/09/05 12:42:02;;;;;;;4.95;1.40;;;36.20;37.80;;;;;;5054247;28;20094;-72
2022/09/05 12:45:08;;;;;;;2.47;1.50;;;36.10;36.80;;;;;;5055367;28;20021;-73
2022/09/05 12:47:53;;;;;;;3.70;1.90;;;36.00;35.00;;;;;;5053419;28;20154;-71
2022/09/05 12:50:22;;;;;;;4.47;1.55;;;36.10;38.90;;;;;;5055084;28;20025;-73
2022/09/05 12:53:00;;;;;;;13.20;3.00;;;36.20;36.20;;;;;;5055697;28;20032;-73
2022/09/05 12:55:38;;;;;;;9.88;2.53;;;36.20;45.40;;;;;;5058803;28;20372;-73
2022/09/05 12:58:17;;;;;;;7.72;2.08;;;36.00;41.00;;;;;;5054562;28;20112;-73
2022/09/05 13:00:46;;;;;;;10.10;2.00;;;35.70;42.30;;;;;;5057247;28;20036;-73
2022/09/05 13:03:16;;;;;;;;;;;35.70;40.30;;;;;;5059359;28;20078;-72
2022/09/05 13:05:52;;;;;;;4.30;1.50;;;36.00;39.70;;;;;;5062770;28;19908;-74
2022/09/05 13:08:22;;;;;;;9.93;2.63;;;36.00;33.40;;;;;;5059175;28;20078;-74
2022/09/05 13:10:55;;;;;;;13.35;2.40;;;36.10;45.80;;;;;;5057500;28;20029;-73
2022/09/05 13:13:33;;;;;;;10.00;2.72;;;36.10;44.60;;;;;;5053484;28;20021;-72
2022/09/05 13:16:02;;;;;;;9.68;2.78;;;36.10;41.30;;;;;;5058977;28;20017;-72
2022/09/05 13:18:37;;;;;;;4.13;1.48;;;36.20;45.80;;;;;;5056699;28;20021;-73
2022/09/05 13:21:18;;;;;;;8.48;2.40;;;36.20;39.10;;;;;;5052084;28;20056;-72
2022/09/05 13:24:14;;;;;;;4.47;1.55;;;36.10;41.10;;;;;;5055637;28;20017;-73
2022/09/05 13:26:42;;;;;;;6.28;2.28;;;36.10;36.40;;;;;;5057544;28;20028;-73
2022/09/05 13:29:18;;;;;;;9.73;3.50;;;36.20;42.60;;;;;;5055931;28;20071;-73
2022/09/05 13:31:52;;;;;;;6.80;1.73;;;36.20;47.80;;;;;;5057767;28;20103;-73
2022/09/05 13:34:21;;;;;;;10.60;2.80;;;36.30;41.80;;;;;;5056752;28;20132;-73
2022/09/05 13:36:50;;;;;;;6.97;2.30;;;36.30;44.70;;;;;;5056295;28;20032;-74
2022/09/05 13:39:19;;;;;;;3.50;1.30;;;36.10;44.30;;;;;;5050820;28;20029;-73
2022/09/05 13:42:02;;;;;;;9.32;2.70;;;35.80;34.70;;;;;;5056178;28;20036;-72
2022/09/05 13:44:29;;;;;;;12.05;2.25;;;35.80;47.40;;;;;;5054362;28;20407;-74
2022/09/05 13:46:58;;;;;;;11.85;3.08;;;36.00;38.30;;;;;;5052009;28;20399;-74
2022/09/05 13:49:33;;;;;;;3.83;1.40;;;36.10;45.40;;;;;;5054209;28;20020;-73
2022/09/05 13:52:07;;;;;;;4.30;0.77;;;36.10;32.70;;;;;;5057032;28;20028;-74
2022/09/05 13:54:59;;;;;;;2.90;0.80;;;36.20;31.50;;;;;;5057568;28;20128;-73
2022/09/05 13:57:45;;;;;;;3.75;1.30;;;36.20;29.70;;;;;;5055832;28;20037;-73
2022/09/05 14:00:12;;;;;;;2.38;1.10;;;36.40;41.10;;;;;;5061922;28;20498;-74
2022/09/05 14:02:52;;;;;;;3.20;1.42;;;36.40;37.50;;;;;;5058964;28;20784;-73
2022/09/05 14:05:31;;;;;;;4.55;1.00;;;36.20;33.90;;;;;;5063693;28;20028;-73